sensor_id;sensor_type;location;lat;lon;timestamp;pressure;altitude;pressure_sealevel;temperature;humidity
39435;BME280;30098;51.880;-0.518;2022-10-31T00:00:58;100699.16;;;18.47;53.52
39435;BME280;30098;51.880;-0.518;2022-10-31T00:03:24;100699.97;;;18.47;53.49
39435;BME280;30098;51.880;-0.518;2022-10-31T00:05:51;100595.53;;;17.81;53.53
39435;BME280;30098;51.880;-0.518;2022-10-31T00:08:17;100704.63;;;18.47;53.29
39435;BME280;30098;51.880;-0.518;2022-10-31T00:10:44;100692.09;;;18.46;53.41
39435;BME280;30098;51.880;-0.518;2022-10-31T00:13:11;100696.44;;;18.47;53.45
39435;BME280;30098;51.880;-0.518;2022-10-31T00:15:38;100673.78;;;18.32;53.47
39435;BME280;30098;51.880;-0.518;2022-10-31T00:18:04;100684.50;;;18.42;53.61
39435;BME280;30098;51.880;-0.518;2022-10-31T00:20:30;100670.84;;;18.29;53.39
39435;BME280;30098;51.880;-0.518;2022-10-31T00:23:00;100701.88;;;18.47;53.50
39435;BME280;30098;51.880;-0.518;2022-10-31T00:25:27;100695.63;;;18.46;53.36
39435;BME280;30098;51.880;-0.518;2022-10-31T00:27:53;100700.28;;;18.46;53.39
39435;BME280;30098;51.880;-0.518;2022-10-31T00:30:18;100697.56;;;18.46;53.60
39435;BME280;30098;51.880;-0.518;2022-10-31T00:32:44;100696.44;;;18.47;53.24
39435;BME280;30098;51.880;-0.518;2022-10-31T00:35:09;100695.63;;;18.46;53.45
39435;BME280;30098;51.880;-0.518;2022-10-31T00:37:35;100692.38;;;18.44;53.34
39435;BME280;30098;51.880;-0.518;2022-10-31T00:40:00;100692.69;;;18.42;53.25
39435;BME280;30098;51.880;-0.518;2022-10-31T00:42:26;100686.66;;;18.46;53.42
39435;BME280;30098;51.880;-0.518;2022-10-31T00:44:51;100648.31;;;18.23;53.45
39435;BME280;30098;51.880;-0.518;2022-10-31T00:47:17;100686.66;;;18.46;53.56
39435;BME280;30098;51.880;-0.518;2022-10-31T00:49:42;100677.66;;;18.45;53.49
39435;BME280;30098;51.880;-0.518;2022-10-31T00:52:08;100667.34;;;18.42;53.41
39435;BME280;30098;51.880;-0.518;2022-10-31T00:54:33;100679.56;;;18.45;53.43
39435;BME280;30098;51.880;-0.518;2022-10-31T00:56:58;100690.50;;;18.45;53.61
39435;BME280;30098;51.880;-0.518;2022-10-31T00:59:24;100688.56;;;18.45;53.29
39435;BME280;30098;51.880;-0.518;2022-10-31T01:01:50;100682.31;;;18.45;53.32
39435;BME280;30098;51.880;-0.518;2022-10-31T01:04:15;100685.03;;;18.45;53.11
39435;BME280;30098;51.880;-0.518;2022-10-31T01:06:41;100682.88;;;18.41;53.53
39435;BME280;30098;51.880;-0.518;2022-10-31T01:09:07;100689.66;;;18.44;53.46
39435;BME280;30098;51.880;-0.518;2022-10-31T01:11:32;100697.06;;;18.44;53.32
39435;BME280;30098;51.880;-0.518;2022-10-31T01:13:58;100691.59;;;18.44;53.41
39435;BME280;30098;51.880;-0.518;2022-10-31T01:16:25;100692.38;;;18.44;53.47
39435;BME280;30098;51.880;-0.518;2022-10-31T01:18:51;100693.22;;;18.45;53.40
39435;BME280;30098;51.880;-0.518;2022-10-31T01:21:22;100694.31;;;18.44;53.41
39435;BME280;30098;51.880;-0.518;2022-10-31T01:23:48;100697.84;;;18.44;53.28
39435;BME280;30098;51.880;-0.518;2022-10-31T01:26:14;100689.97;;;18.42;53.48
39435;BME280;30098;51.880;-0.518;2022-10-31T01:29:01;100686.13;;;18.44;53.44
39435;BME280;30098;51.880;-0.518;2022-10-31T01:31:32;100688.03;;;18.43;53.40
39435;BME280;30098;51.880;-0.518;2022-10-31T01:33:59;100656.78;;;18.21;53.51
39435;BME280;30098;51.880;-0.518;2022-10-31T01:36:30;100652.66;;;18.24;53.52
39435;BME280;30098;51.880;-0.518;2022-10-31T01:38:58;100683.41;;;18.44;53.47
39435;BME280;30098;51.880;-0.518;2022-10-31T01:41:30;100679.84;;;18.43;53.47
39435;BME280;30098;51.880;-0.518;2022-10-31T01:43:57;100677.13;;;18.43;53.45
39435;BME280;30098;51.880;-0.518;2022-10-31T01:46:38;100682.59;;;18.43;53.39
39435;BME280;30098;51.880;-0.518;2022-10-31T01:49:09;100688.03;;;18.43;53.32
39435;BME280;30098;51.880;-0.518;2022-10-31T01:51:41;100676.44;;;18.37;53.31
39435;BME280;30098;51.880;-0.518;2022-10-31T01:54:11;100654.25;;;18.25;53.29
39435;BME280;30098;51.880;-0.518;2022-10-31T01:56:40;100681.78;;;18.42;53.50
39435;BME280;30098;51.880;-0.518;2022-10-31T01:59:10;100670.88;;;18.42;53.44
39435;BME280;30098;51.880;-0.518;2022-10-31T02:01:37;100644.19;;;18.25;53.50
39435;BME280;30098;51.880;-0.518;2022-10-31T02:04:03;100672.81;;;18.42;53.31
39435;BME280;30098;51.880;-0.518;2022-10-31T02:06:32;100667.34;;;18.42;53.35
39435;BME280;30098;51.880;-0.518;2022-10-31T02:09:02;100673.91;;;18.41;53.26
39435;BME280;30098;51.880;-0.518;2022-10-31T02:11:29;100663.78;;;18.41;53.47
39435;BME280;30098;51.880;-0.518;2022-10-31T02:13:54;100667.34;;;18.42;53.41
39435;BME280;30098;51.880;-0.518;2022-10-31T02:16:20;100671.97;;;18.41;53.39
39435;BME280;30098;51.880;-0.518;2022-10-31T02:18:46;100662.16;;;18.40;53.40
39435;BME280;30098;51.880;-0.518;2022-10-31T02:30:04;100557.91;;;17.83;53.04
39435;BME280;30098;51.880;-0.518;2022-10-31T02:32:41;100549.72;;;17.83;53.42
39435;BME280;30098;51.880;-0.518;2022-10-31T02:41:26;100632.59;;;18.34;53.37
39435;BME280;30098;51.880;-0.518;2022-10-31T02:47:05;100641.47;;;18.39;53.37
39435;BME280;30098;51.880;-0.518;2022-10-31T02:49:40;100635.22;;;18.39;53.51
39435;BME280;30098;51.880;-0.518;2022-10-31T02:52:21;100639.03;;;18.38;53.41
39435;BME280;30098;51.880;-0.518;2022-10-31T02:54:48;100651.56;;;18.39;53.33
39435;BME280;30098;51.880;-0.518;2022-10-31T02:57:17;100621.84;;;18.23;53.42
39435;BME280;30098;51.880;-0.518;2022-10-31T02:59:47;100641.75;;;18.38;53.39
39435;BME280;30098;51.880;-0.518;2022-10-31T03:05:36;100650.78;;;18.38;53.20
39435;BME280;30098;51.880;-0.518;2022-10-31T03:08:21;100639.88;;;18.38;53.52
39435;BME280;30098;51.880;-0.518;2022-10-31T03:11:03;100635.22;;;18.39;53.46
39435;BME280;30098;51.880;-0.518;2022-10-31T03:22:21;100645.31;;;18.38;53.39
39435;BME280;30098;51.880;-0.518;2022-10-31T03:24:48;100640.16;;;18.37;53.38
39435;BME280;30098;51.880;-0.518;2022-10-31T03:27:20;100631.97;;;18.37;53.26
39435;BME280;30098;51.880;-0.518;2022-10-31T03:29:47;100632.78;;;18.37;53.37
39435;BME280;30098;51.880;-0.518;2022-10-31T03:32:25;100630.84;;;18.38;53.22
39435;BME280;30098;51.880;-0.518;2022-10-31T03:34:55;100599.81;;;18.20;53.30
39435;BME280;30098;51.880;-0.518;2022-10-31T03:37:25;100621.06;;;18.37;53.61
39435;BME280;30098;51.880;-0.518;2022-10-31T03:39:55;100618.63;;;18.35;53.45
39435;BME280;30098;51.880;-0.518;2022-10-31T03:42:24;100614.28;;;18.34;53.27
39435;BME280;30098;51.880;-0.518;2022-10-31T03:44:53;100591.13;;;18.18;53.27
39435;BME280;30098;51.880;-0.518;2022-10-31T03:47:21;100620.25;;;18.36;53.49
39435;BME280;30098;51.880;-0.518;2022-10-31T03:49:47;100603.97;;;18.17;53.22
39435;BME280;30098;51.880;-0.518;2022-10-31T03:52:33;100633.88;;;18.36;53.20
39435;BME280;30098;51.880;-0.518;2022-10-31T03:55:09;100612.88;;;18.23;53.31
39435;BME280;30098;51.880;-0.518;2022-10-31T03:57:43;100636.63;;;18.36;53.36
39435;BME280;30098;51.880;-0.518;2022-10-31T04:00:13;100631.16;;;18.36;53.39
39435;BME280;30098;51.880;-0.518;2022-10-31T04:02:42;100631.16;;;18.36;53.37
39435;BME280;30098;51.880;-0.518;2022-10-31T04:05:10;100627.59;;;18.36;53.13
39435;BME280;30098;51.880;-0.518;2022-10-31T04:07:39;100626.81;;;18.35;53.23
39435;BME280;30098;51.880;-0.518;2022-10-31T04:10:09;100631.16;;;18.36;53.34
39435;BME280;30098;51.880;-0.518;2022-10-31T04:12:36;100596.28;;;18.19;53.40
39435;BME280;30098;51.880;-0.518;2022-10-31T04:15:05;100618.63;;;18.35;53.54
39435;BME280;30098;51.880;-0.518;2022-10-31T04:17:33;100613.97;;;18.36;53.54
39435;BME280;30098;51.880;-0.518;2022-10-31T04:20:00;100578.31;;;18.18;53.36
39435;BME280;30098;51.880;-0.518;2022-10-31T04:22:26;100602.28;;;18.35;53.15
39435;BME280;30098;51.880;-0.518;2022-10-31T04:24:51;100597.59;;;18.36;53.32
39435;BME280;30098;51.880;-0.518;2022-10-31T04:27:17;100585.91;;;18.35;53.35
39435;BME280;30098;51.880;-0.518;2022-10-31T04:29:42;100581.66;;;18.29;53.17
39435;BME280;30098;51.880;-0.518;2022-10-31T04:32:08;100590.25;;;18.36;53.11
39435;BME280;30098;51.880;-0.518;2022-10-31T04:34:33;100590.56;;;18.35;53.18
39435;BME280;30098;51.880;-0.518;2022-10-31T04:36:59;100580.44;;;18.35;53.51
39435;BME280;30098;51.880;-0.518;2022-10-31T04:39:24;100584.28;;;18.34;53.46
39435;BME280;30098;51.880;-0.518;2022-10-31T04:41:50;100597.91;;;18.34;53.38
39435;BME280;30098;51.880;-0.518;2022-10-31T04:44:16;100567.09;;;18.20;53.13
39435;BME280;30098;51.880;-0.518;2022-10-31T04:46:41;100592.47;;;18.34;53.28
39435;BME280;30098;51.880;-0.518;2022-10-31T04:49:06;100596.00;;;18.35;53.23
39435;BME280;30098;51.880;-0.518;2022-10-31T04:51:32;100571.75;;;18.19;53.32
39435;BME280;30098;51.880;-0.518;2022-10-31T04:53:57;100561.75;;;18.15;53.14
39435;BME280;30098;51.880;-0.518;2022-10-31T04:56:23;100584.28;;;18.34;53.35
39435;BME280;30098;51.880;-0.518;2022-10-31T04:58:48;100594.41;;;18.34;53.25
39435;BME280;30098;51.880;-0.518;2022-10-31T05:01:14;100591.66;;;18.34;53.16
39435;BME280;30098;51.880;-0.518;2022-10-31T05:03:39;100583.47;;;18.34;53.45
39435;BME280;30098;51.880;-0.518;2022-10-31T05:06:06;100591.66;;;18.34;53.42
39435;BME280;30098;51.880;-0.518;2022-10-31T05:08:31;100597.91;;;18.34;53.34
39435;BME280;30098;51.880;-0.518;2022-10-31T05:11:03;100593.56;;;18.33;53.17
39435;BME280;30098;51.880;-0.518;2022-10-31T05:13:30;100582.97;;;18.32;53.35
39435;BME280;30098;51.880;-0.518;2022-10-31T05:15:55;100584.28;;;18.34;53.05
39435;BME280;30098;51.880;-0.518;2022-10-31T05:18:21;100582.66;;;18.33;53.35
39435;BME280;30098;51.880;-0.518;2022-10-31T05:20:46;100487.25;;;17.72;53.09
39435;BME280;30098;51.880;-0.518;2022-10-31T05:23:12;100583.47;;;18.34;53.08
39435;BME280;30098;51.880;-0.518;2022-10-31T05:25:39;100575.59;;;18.32;53.37
39435;BME280;30098;51.880;-0.518;2022-10-31T05:28:05;100536.78;;;18.07;53.02
39435;BME280;30098;51.880;-0.518;2022-10-31T05:30:31;100569.03;;;18.33;53.40
39435;BME280;30098;51.880;-0.518;2022-10-31T05:32:57;100568.81;;;18.30;53.46
39435;BME280;30098;51.880;-0.518;2022-10-31T05:35:28;100575.59;;;18.32;53.33
39435;BME280;30098;51.880;-0.518;2022-10-31T05:37:54;100570.94;;;18.33;53.17
39435;BME280;30098;51.880;-0.518;2022-10-31T05:40:20;100574.47;;;18.33;53.38
39435;BME280;30098;51.880;-0.518;2022-10-31T05:42:46;100568.03;;;18.29;53.33
39435;BME280;30098;51.880;-0.518;2022-10-31T05:45:14;100571.75;;;18.33;53.42
39435;BME280;30098;51.880;-0.518;2022-10-31T05:47:40;100547.28;;;18.14;53.15
39435;BME280;30098;51.880;-0.518;2022-10-31T05:50:06;100569.44;;;18.27;53.31
39435;BME280;30098;51.880;-0.518;2022-10-31T05:52:32;100569.34;;;18.32;53.29
39435;BME280;30098;51.880;-0.518;2022-10-31T05:54:58;100568.53;;;18.31;53.41
39435;BME280;30098;51.880;-0.518;2022-10-31T05:57:23;100564.66;;;18.32;53.20
39435;BME280;30098;51.880;-0.518;2022-10-31T05:59:49;100536.91;;;18.16;53.42
39435;BME280;30098;51.880;-0.518;2022-10-31T06:02:18;100472.50;;;17.73;53.13
39435;BME280;30098;51.880;-0.518;2022-10-31T06:04:44;100564.66;;;18.32;53.25
39435;BME280;30098;51.880;-0.518;2022-10-31T06:07:09;100560.34;;;18.31;53.27
39435;BME280;30098;51.880;-0.518;2022-10-31T06:09:35;100544.69;;;18.23;52.94
39435;BME280;30098;51.880;-0.518;2022-10-31T06:12:00;100552.97;;;18.32;53.29
39435;BME280;30098;51.880;-0.518;2022-10-31T06:14:25;100556.50;;;18.32;53.28
39435;BME280;30098;51.880;-0.518;2022-10-31T06:16:51;100553.28;;;18.30;53.30
39435;BME280;30098;51.880;-0.518;2022-10-31T06:19:16;100556.00;;;18.30;53.22
39435;BME280;30098;51.880;-0.518;2022-10-31T06:21:42;100549.44;;;18.31;53.09
39435;BME280;30098;51.880;-0.518;2022-10-31T06:24:07;100542.38;;;18.30;53.22
39435;BME280;30098;51.880;-0.518;2022-10-31T06:26:33;100550.56;;;18.30;53.16
39435;BME280;30098;51.880;-0.518;2022-10-31T06:28:58;100543.78;;;18.28;53.35
39435;BME280;30098;51.880;-0.518;2022-10-31T06:31:24;100545.09;;;18.30;53.22
39435;BME280;30098;51.880;-0.518;2022-10-31T06:33:49;100546.72;;;18.31;53.10
39435;BME280;30098;51.880;-0.518;2022-10-31T06:36:15;100547.00;;;18.30;53.22
39435;BME280;30098;51.880;-0.518;2022-10-31T06:38:40;100541.53;;;18.30;53.11
39435;BME280;30098;51.880;-0.518;2022-10-31T06:41:06;100545.09;;;18.30;53.02
39435;BME280;30098;51.880;-0.518;2022-10-31T06:43:32;100548.94;;;18.29;53.23
39435;BME280;30098;51.880;-0.518;2022-10-31T06:45:57;100536.19;;;18.24;53.35
39435;BME280;30098;51.880;-0.518;2022-10-31T06:48:23;100542.66;;;18.29;53.14
39435;BME280;30098;51.880;-0.518;2022-10-31T06:50:48;100522.94;;;18.18;53.39
39435;BME280;30098;51.880;-0.518;2022-10-31T06:53:14;100538.03;;;18.29;53.37
39435;BME280;30098;51.880;-0.518;2022-10-31T06:55:40;100531.75;;;18.29;53.25
39435;BME280;30098;51.880;-0.518;2022-10-31T06:58:06;100543.47;;;18.29;53.24
39435;BME280;30098;51.880;-0.518;2022-10-31T07:00:33;100520.22;;;18.18;53.18
39435;BME280;30098;51.880;-0.518;2022-10-31T07:03:01;100538.03;;;18.29;53.06
39435;BME280;30098;51.880;-0.518;2022-10-31T07:05:27;100528.22;;;18.28;53.19
39435;BME280;30098;51.880;-0.518;2022-10-31T07:07:59;100501.25;;;18.13;53.28
39435;BME280;30098;51.880;-0.518;2022-10-31T07:10:27;100525.50;;;18.28;53.22
39435;BME280;30098;51.880;-0.518;2022-10-31T07:12:56;100512.56;;;18.20;53.35
39435;BME280;30098;51.880;-0.518;2022-10-31T07:15:23;100527.44;;;18.28;53.30
39435;BME280;30098;51.880;-0.518;2022-10-31T07:17:49;100528.22;;;18.28;53.03
39435;BME280;30098;51.880;-0.518;2022-10-31T07:20:16;100527.44;;;18.28;53.29
39435;BME280;30098;51.880;-0.518;2022-10-31T07:22:41;100501.34;;;18.07;53.03
39435;BME280;30098;51.880;-0.518;2022-10-31T07:25:07;100528.81;;;18.25;53.38
39435;BME280;30098;51.880;-0.518;2022-10-31T07:27:40;100536.19;;;18.24;53.17
39435;BME280;30098;51.880;-0.518;2022-10-31T07:30:07;100539.44;;;18.27;53.04
39435;BME280;30098;51.880;-0.518;2022-10-31T07:32:48;100537.50;;;18.27;53.29
39435;BME280;30098;51.880;-0.518;2022-10-31T07:35:20;100536.41;;;18.28;53.04
39435;BME280;30098;51.880;-0.518;2022-10-31T07:37:46;100535.59;;;18.28;53.21
39435;BME280;30098;51.880;-0.518;2022-10-31T07:40:11;100537.81;;;18.25;53.16
39435;BME280;30098;51.880;-0.518;2022-10-31T07:42:45;100500.03;;;18.05;53.20
39435;BME280;30098;51.880;-0.518;2022-10-31T07:45:13;100529.31;;;18.27;53.31
39435;BME280;30098;51.880;-0.518;2022-10-31T07:47:47;100532.06;;;18.27;53.33
39435;BME280;30098;51.880;-0.518;2022-10-31T07:50:15;100513.47;;;18.15;53.10
39435;BME280;30098;51.880;-0.518;2022-10-31T07:52:41;100535.88;;;18.26;53.27
39435;BME280;30098;51.880;-0.518;2022-10-31T07:55:07;100512.16;;;18.13;53.07
39435;BME280;30098;51.880;-0.518;2022-10-31T07:57:32;100530.44;;;18.26;53.13
39435;BME280;30098;51.880;-0.518;2022-10-31T07:59:58;100524.50;;;18.24;53.11
39435;BME280;30098;51.880;-0.518;2022-10-31T08:02:24;100526.91;;;18.25;53.22
39435;BME280;30098;51.880;-0.518;2022-10-31T08:04:50;100531.25;;;18.27;53.05
39435;BME280;30098;51.880;-0.518;2022-10-31T08:07:16;100528.81;;;18.25;53.06
39435;BME280;30098;51.880;-0.518;2022-10-31T08:09:42;100528.53;;;18.27;53.04
39435;BME280;30098;51.880;-0.518;2022-10-31T08:12:08;100526.28;;;18.29;53.32
39435;BME280;30098;51.880;-0.518;2022-10-31T08:14:33;100508.84;;;18.16;53.85
39435;BME280;30098;51.880;-0.518;2022-10-31T08:16:59;100523.88;;;18.27;54.40
39435;BME280;30098;51.880;-0.518;2022-10-31T08:19:24;100530.16;;;18.28;54.37
39435;BME280;30098;51.880;-0.518;2022-10-31T08:21:53;100532.56;;;18.29;54.35
39435;BME280;30098;51.880;-0.518;2022-10-31T08:24:21;100535.59;;;18.28;54.79
39435;BME280;30098;51.880;-0.518;2022-10-31T08:26:46;100447.38;;;17.76;54.91
39435;BME280;30098;51.880;-0.518;2022-10-31T08:29:12;100527.44;;;18.28;55.17
39435;BME280;30098;51.880;-0.518;2022-10-31T08:31:38;100489.94;;;18.05;55.40
39435;BME280;30098;51.880;-0.518;2022-10-31T08:34:03;100517.09;;;18.24;55.36
39435;BME280;30098;51.880;-0.518;2022-10-31T08:36:29;100527.69;;;18.26;55.80
39435;BME280;30098;51.880;-0.518;2022-10-31T08:38:55;100506.72;;;18.27;55.79
39435;BME280;30098;51.880;-0.518;2022-10-31T08:41:21;100505.88;;;18.26;56.09
39435;BME280;30098;51.880;-0.518;2022-10-31T08:43:47;100507.81;;;18.25;56.12
39435;BME280;30098;51.880;-0.518;2022-10-31T08:46:12;100524.19;;;18.25;56.24
39435;BME280;30098;51.880;-0.518;2022-10-31T08:48:38;100500.84;;;18.19;56.18
39435;BME280;30098;51.880;-0.518;2022-10-31T08:51:04;100509.72;;;18.25;55.99
39435;BME280;30098;51.880;-0.518;2022-10-31T08:53:30;100508.94;;;18.24;56.36
39435;BME280;30098;51.880;-0.518;2022-10-31T08:55:55;100513.59;;;18.24;56.33
39435;BME280;30098;51.880;-0.518;2022-10-31T08:58:22;100508.13;;;18.24;56.52
39435;BME280;30098;51.880;-0.518;2022-10-31T09:00:50;100504.28;;;18.25;56.63
39435;BME280;30098;51.880;-0.518;2022-10-31T09:03:22;100499.63;;;18.25;56.17
39435;BME280;30098;51.880;-0.518;2022-10-31T09:05:48;100492.88;;;18.23;56.45
39435;BME280;30098;51.880;-0.518;2022-10-31T09:08:14;100467.81;;;18.07;56.31
39435;BME280;30098;51.880;-0.518;2022-10-31T09:10:40;100482.66;;;18.29;56.42
39435;BME280;30098;51.880;-0.518;2022-10-31T09:13:09;100487.50;;;18.32;57.00
39435;BME280;30098;51.880;-0.518;2022-10-31T09:15:36;100489.94;;;18.33;56.71
39435;BME280;30098;51.880;-0.518;2022-10-31T09:18:04;100483.38;;;18.34;56.54
39435;BME280;30098;51.880;-0.518;2022-10-31T09:20:31;100484.19;;;18.35;57.06
39435;BME280;30098;51.880;-0.518;2022-10-31T09:23:02;100485.19;;;18.39;56.91
39435;BME280;30098;51.880;-0.518;2022-10-31T09:25:28;100478.94;;;18.38;56.97
39435;BME280;30098;51.880;-0.518;2022-10-31T09:27:58;100475.56;;;18.41;56.93
39435;BME280;30098;51.880;-0.518;2022-10-31T09:30:25;100478.00;;;18.43;56.67
39435;BME280;30098;51.880;-0.518;2022-10-31T09:32:58;100473.88;;;18.46;56.73
39435;BME280;30098;51.880;-0.518;2022-10-31T09:35:24;100479.81;;;18.48;56.90
39435;BME280;30098;51.880;-0.518;2022-10-31T09:38:01;100467.50;;;18.50;56.58
39435;BME280;30098;51.880;-0.518;2022-10-31T09:40:41;100462.84;;;18.51;56.40
39435;BME280;30098;51.880;-0.518;2022-10-31T09:50:48;100454.53;;;18.56;56.24
39435;BME280;30098;51.880;-0.518;2022-10-31T09:53:39;100435.56;;;18.51;56.17
39435;BME280;30098;51.880;-0.518;2022-10-31T09:56:13;100446.84;;;18.58;57.37
39435;BME280;30098;51.880;-0.518;2022-10-31T09:58:43;100450.88;;;18.61;56.16
39435;BME280;30098;51.880;-0.518;2022-10-31T10:04:05;100444.19;;;18.67;56.73
39435;BME280;30098;51.880;-0.518;2022-10-31T10:06:44;100438.94;;;18.70;56.58
39435;BME280;30098;51.880;-0.518;2022-10-31T10:09:10;100441.84;;;18.74;56.57
39435;BME280;30098;51.880;-0.518;2022-10-31T10:17:11;100451.91;;;18.87;56.09
39435;BME280;30098;51.880;-0.518;2022-10-31T10:23:47;100444.97;;;18.95;55.62
39435;BME280;30098;51.880;-0.518;2022-10-31T10:25:51;100437.75;;;18.99;55.42
39435;BME280;30098;51.880;-0.518;2022-10-31T10:28:26;100435.03;;;18.99;55.11
39435;BME280;30098;51.880;-0.518;2022-10-31T10:31:16;100416.16;;;18.89;55.04
39435;BME280;30098;51.880;-0.518;2022-10-31T10:36:33;100433.13;;;19.00;55.67
39435;BME280;30098;51.880;-0.518;2022-10-31T10:39:12;100419.28;;;18.96;55.58
39435;BME280;30098;51.880;-0.518;2022-10-31T10:41:43;100428.63;;;19.04;55.36
39435;BME280;30098;51.880;-0.518;2022-10-31T10:44:10;100428.50;;;19.09;54.79
39435;BME280;30098;51.880;-0.518;2022-10-31T10:46:45;100425.16;;;19.12;54.91
39435;BME280;30098;51.880;-0.518;2022-10-31T10:55:16;100403.84;;;19.23;54.80
39435;BME280;30098;51.880;-0.518;2022-10-31T11:02:52;100405.69;;;19.36;54.38
39435;BME280;30098;51.880;-0.518;2022-10-31T11:05:54;100404.75;;;19.41;53.84
39435;BME280;30098;51.880;-0.518;2022-10-31T11:08:34;100394.34;;;19.43;53.90
39435;BME280;30098;51.880;-0.518;2022-10-31T11:13:27;100383.25;;;19.48;53.92
39435;BME280;30098;51.880;-0.518;2022-10-31T11:15:59;100380.72;;;19.52;54.27
39435;BME280;30098;51.880;-0.518;2022-10-31T11:18:27;100370.59;;;19.52;53.67
39435;BME280;30098;51.880;-0.518;2022-10-31T11:20:57;100365.47;;;19.60;53.60
39435;BME280;30098;51.880;-0.518;2022-10-31T11:23:24;100355.84;;;19.62;53.83
39435;BME280;30098;51.880;-0.518;2022-10-31T11:26:03;100360.38;;;19.67;53.44
39435;BME280;30098;51.880;-0.518;2022-10-31T11:28:31;100356.19;;;19.70;53.74
39435;BME280;30098;51.880;-0.518;2022-10-31T11:31:07;100360.72;;;19.74;53.65
39435;BME280;30098;51.880;-0.518;2022-10-31T11:33:36;100358.16;;;19.78;53.34
39435;BME280;30098;51.880;-0.518;2022-10-31T11:36:15;100363.47;;;19.83;53.15
39435;BME280;30098;51.880;-0.518;2022-10-31T11:38:42;100347.38;;;19.81;52.88
39435;BME280;30098;51.880;-0.518;2022-10-31T11:41:14;100352.56;;;19.92;52.94
39435;BME280;30098;51.880;-0.518;2022-10-31T11:43:48;100339.88;;;19.96;53.07
39435;BME280;30098;51.880;-0.518;2022-10-31T11:46:19;100327.50;;;19.98;53.16
39435;BME280;30098;51.880;-0.518;2022-10-31T11:48:51;100317.34;;;19.99;52.70
39435;BME280;30098;51.880;-0.518;2022-10-31T11:51:24;100315.28;;;20.05;52.54
39435;BME280;30098;51.880;-0.518;2022-10-31T11:53:52;100317.38;;;20.08;52.42
39435;BME280;30098;51.880;-0.518;2022-10-31T11:56:19;100313.84;;;20.07;52.36
39435;BME280;30098;51.880;-0.518;2022-10-31T11:59:02;100310.75;;;20.09;52.37
39435;BME280;30098;51.880;-0.518;2022-10-31T12:01:29;100311.75;;;20.13;52.35
39435;BME280;30098;51.880;-0.518;2022-10-31T12:04:12;100300.16;;;20.16;52.44
39435;BME280;30098;51.880;-0.518;2022-10-31T12:06:43;100281.00;;;20.07;52.17
39435;BME280;30098;51.880;-0.518;2022-10-31T12:09:22;100304.38;;;20.22;52.42
39435;BME280;30098;51.880;-0.518;2022-10-31T12:17:58;100285.53;;;20.29;50.80
39435;BME280;30098;51.880;-0.518;2022-10-31T12:29:02;100260.91;;;20.29;50.06
39435;BME280;30098;51.880;-0.518;2022-10-31T12:56:49;100194.56;;;20.41;50.03
39435;BME280;30098;51.880;-0.518;2022-10-31T12:59:33;100183.31;;;20.43;50.08
39435;BME280;30098;51.880;-0.518;2022-10-31T13:02:19;100174.78;;;20.44;50.15
39435;BME280;30098;51.880;-0.518;2022-10-31T13:05:02;100163.50;;;20.46;50.05
39435;BME280;30098;51.880;-0.518;2022-10-31T13:07:39;100172.53;;;20.46;50.72
39435;BME280;30098;51.880;-0.518;2022-10-31T13:12:38;100146.78;;;20.47;50.01
39435;BME280;30098;51.880;-0.518;2022-10-31T13:15:26;100128.09;;;20.41;50.29
39435;BME280;30098;51.880;-0.518;2022-10-31T13:17:55;100125.53;;;20.44;49.96
39435;BME280;30098;51.880;-0.518;2022-10-31T13:22:54;100139.16;;;20.53;49.78
39435;BME280;30098;51.880;-0.518;2022-10-31T13:25:28;100128.22;;;20.53;49.61
39435;BME280;30098;51.880;-0.518;2022-10-31T13:28:01;100119.69;;;20.55;49.95
39435;BME280;30098;51.880;-0.518;2022-10-31T13:30:32;100110.22;;;20.52;49.98
39435;BME280;30098;51.880;-0.518;2022-10-31T13:38:41;100086.53;;;20.56;49.76
39435;BME280;30098;51.880;-0.518;2022-10-31T13:44:22;100073.63;;;20.57;49.80
39435;BME280;30098;51.880;-0.518;2022-10-31T13:46:53;100071.03;;;20.60;49.95
39435;BME280;30098;51.880;-0.518;2022-10-31T13:49:39;100068.78;;;20.62;49.85
39435;BME280;30098;51.880;-0.518;2022-10-31T13:54:33;100058.31;;;20.65;49.68
39435;BME280;30098;51.880;-0.518;2022-10-31T13:56:59;100057.19;;;20.66;49.70
39435;BME280;30098;51.880;-0.518;2022-10-31T13:59:27;100045.91;;;20.67;49.76
39435;BME280;30098;51.880;-0.518;2022-10-31T14:01:56;100031.28;;;20.63;49.77
39435;BME280;30098;51.880;-0.518;2022-10-31T14:07:05;100039.78;;;20.70;49.71
39435;BME280;30098;51.880;-0.518;2022-10-31T14:09:41;100023.34;;;20.70;49.50
39435;BME280;30098;51.880;-0.518;2022-10-31T14:12:29;100004.97;;;20.71;49.90
39435;BME280;30098;51.880;-0.518;2022-10-31T14:14:59;100003.84;;;20.72;49.59
39435;BME280;30098;51.880;-0.518;2022-10-31T14:17:29;100001.63;;;20.74;49.74
39435;BME280;30098;51.880;-0.518;2022-10-31T14:22:37;99979.72;;;20.74;49.79
39435;BME280;30098;51.880;-0.518;2022-10-31T14:25:33;99988.06;;;20.77;49.80
39435;BME280;30098;51.880;-0.518;2022-10-31T14:28:01;99978.25;;;20.76;49.94
39435;BME280;30098;51.880;-0.518;2022-10-31T14:30:29;99890.31;;;20.27;49.84
39435;BME280;30098;51.880;-0.518;2022-10-31T14:33:01;99965.50;;;20.81;50.08
39435;BME280;30098;51.880;-0.518;2022-10-31T14:35:51;99965.16;;;20.82;49.90
39435;BME280;30098;51.880;-0.518;2022-10-31T14:38:37;99960.97;;;20.85;50.40
39435;BME280;30098;51.880;-0.518;2022-10-31T14:41:35;99956.41;;;20.89;50.60
39435;BME280;30098;51.880;-0.518;2022-10-31T14:44:16;99956.19;;;20.94;50.39
39435;BME280;30098;51.880;-0.518;2022-10-31T14:47:22;99949.72;;;20.99;50.48
39435;BME280;30098;51.880;-0.518;2022-10-31T14:52:36;99944.16;;;21.07;50.13
39435;BME280;30098;51.880;-0.518;2022-10-31T14:55:07;99937.22;;;21.10;50.13
39435;BME280;30098;51.880;-0.518;2022-10-31T14:57:36;99942.84;;;21.14;50.24
39435;BME280;30098;51.880;-0.518;2022-10-31T15:00:07;99925.94;;;21.12;50.23
39435;BME280;30098;51.880;-0.518;2022-10-31T15:03:01;99915.56;;;21.17;49.76